Time;durP1;ratioP1;P1;durP2;ratioP2;P2;SDS_P1;SDS_P2;PMS_P1;PMS_P2;Temp;Humidity;BMP_temperature;BMP_pressure;BME280_temperature;BME280_humidity;BME280_pressure;Samples;Min_cycle;Max_cycle;Signal;HPM_P1;HPM_P2
2022/03/06 04:02:32;;;;;;;21.93;14.57;;;-4.20;99.90;;;;;;4960127;23;20706;-76
2022/03/06 04:04:58;;;;;;;18.87;13.33;;;-4.20;99.90;;;;;;4917743;29;20187;-75
2022/03/06 04:07:24;;;;;;;19.13;14.40;;;-4.10;99.90;;;;;;4915218;29;20215;-77
2022/03/06 04:09:50;;;;;;;22.60;15.03;;;-4.20;99.90;;;;;;4914104;29;20187;-77
2022/03/06 04:12:16;;;;;;;21.93;13.50;;;-4.20;99.90;;;;;;4918510;29;20199;-78
2022/03/06 04:17:09;;;;;;;18.30;14.07;;;-4.30;99.90;;;;;;4930415;29;20456;-77
2022/03/06 04:19:35;;;;;;;19.93;14.10;;;-4.20;99.90;;;;;;4949658;29;20257;-77
2022/03/06 04:22:01;;;;;;;21.30;15.17;;;-4.30;99.90;;;;;;4934549;29;20638;-77
2022/03/06 04:24:27;;;;;;;19.30;14.30;;;-4.30;99.90;;;;;;4934716;29;20182;-77
2022/03/06 04:26:53;;;;;;;23.40;15.07;;;-4.20;99.90;;;;;;4935598;29;20206;-77
2022/03/06 04:29:19;;;;;;;22.40;14.87;;;-4.30;99.90;;;;;;4933679;29;20175;-77
2022/03/06 04:31:45;;;;;;;19.53;13.90;;;-4.30;99.90;;;;;;4933788;29;20178;-76
2022/03/06 04:34:10;;;;;;;20.77;14.27;;;-4.40;99.90;;;;;;4933705;29;20764;-76
2022/03/06 04:36:36;;;;;;;20.50;13.63;;;-4.40;99.90;;;;;;4934333;29;20244;-77
2022/03/06 04:39:04;;;;;;;21.30;14.37;;;-4.30;99.90;;;;;;4933395;29;20553;-77
2022/03/06 04:41:29;;;;;;;22.63;14.93;;;-4.30;99.90;;;;;;4931768;29;20268;-76
2022/03/06 04:43:55;;;;;;;19.17;13.83;;;-4.20;99.90;;;;;;4915627;29;20186;-77
2022/03/06 04:46:21;;;;;;;18.73;13.13;;;-4.20;99.90;;;;;;4915792;29;20203;-77
2022/03/06 04:48:47;;;;;;;21.93;14.53;;;-4.20;99.90;;;;;;4915275;29;20186;-77
2022/03/06 04:51:13;;;;;;;20.10;15.60;;;-4.20;99.90;;;;;;4914661;29;20255;-77
2022/03/06 04:53:39;;;;;;;23.00;15.33;;;-4.20;99.90;;;;;;4915722;29;20191;-77
2022/03/06 04:56:06;;;;;;;22.00;15.37;;;-4.30;99.90;;;;;;4916402;29;20206;-77
2022/03/06 04:58:32;;;;;;;20.10;13.53;;;-4.30;99.90;;;;;;4917816;29;20263;-76
2022/03/06 05:00:58;;;;;;;20.03;14.10;;;-4.30;99.90;;;;;;4916804;29;20242;-77
2022/03/06 05:03:24;;;;;;;24.77;14.50;;;-4.40;99.90;;;;;;4917225;29;20279;-77
2022/03/06 05:05:50;;;;;;;20.57;14.33;;;-4.40;99.90;;;;;;4917587;29;20239;-77
2022/03/06 05:08:16;;;;;;;19.97;13.60;;;-4.40;99.90;;;;;;4916531;29;20225;-77
2022/03/06 05:10:42;;;;;;;23.90;15.73;;;-4.40;99.90;;;;;;4914873;29;20206;-76
2022/03/06 05:13:09;;;;;;;21.50;14.90;;;-4.40;99.90;;;;;;4914994;29;20183;-77
2022/03/06 05:15:35;;;;;;;17.63;13.10;;;-4.50;99.90;;;;;;4916520;29;20218;-77
2022/03/06 05:18:02;;;;;;;20.30;13.27;;;-4.50;99.90;;;;;;4916581;29;20214;-77
2022/03/06 05:20:28;;;;;;;19.17;13.93;;;-4.50;99.90;;;;;;4916232;29;20193;-77
2022/03/06 05:22:54;;;;;;;18.17;14.63;;;-4.50;99.90;;;;;;4916132;29;20205;-77
2022/03/06 05:25:20;;;;;;;21.03;14.60;;;-4.50;99.90;;;;;;4913302;29;20202;-76
2022/03/06 05:27:45;;;;;;;20.63;14.40;;;-4.50;99.90;;;;;;4927981;29;20710;-77
2022/03/06 05:30:13;;;;;;;21.77;14.20;;;-4.50;99.90;;;;;;4934216;29;20184;-77
2022/03/06 05:32:40;;;;;;;19.83;14.50;;;-4.50;99.90;;;;;;4922206;29;20672;-77
2022/03/06 05:35:06;;;;;;;22.93;13.40;;;-4.60;99.90;;;;;;4915562;29;20302;-77
2022/03/06 05:37:32;;;;;;;20.93;15.63;;;-4.50;99.90;;;;;;4920539;29;20828;-77
2022/03/06 05:39:58;;;;;;;19.23;14.10;;;-4.50;99.90;;;;;;4936774;29;20193;-69
2022/03/06 05:42:24;;;;;;;19.30;14.30;;;-4.60;99.90;;;;;;4935902;29;20186;-69
2022/03/06 05:44:50;;;;;;;17.40;13.93;;;-4.60;99.90;;;;;;4937516;29;20186;-69
2022/03/06 05:47:16;;;;;;;23.57;14.90;;;-4.60;99.90;;;;;;4939287;29;20261;-69
2022/03/06 05:49:42;;;;;;;17.53;13.87;;;-4.60;99.90;;;;;;4945988;29;20174;-69
2022/03/06 05:52:08;;;;;;;21.70;15.07;;;-4.60;99.90;;;;;;4937832;29;20193;-70
2022/03/06 05:54:35;;;;;;;19.33;14.30;;;-4.70;99.90;;;;;;4930674;29;20210;-70
2022/03/06 05:57:01;;;;;;;20.23;14.67;;;-4.70;99.90;;;;;;4917505;29;20338;-69
2022/03/06 05:59:26;;;;;;;22.00;14.87;;;-4.70;99.90;;;;;;4918489;29;20278;-69
2022/03/06 06:01:52;;;;;;;19.90;13.10;;;-4.80;99.90;;;;;;4916722;29;20296;-69
2022/03/06 06:04:18;;;;;;;21.60;15.13;;;-4.80;99.90;;;;;;4917936;29;20179;-69
2022/03/06 06:06:44;;;;;;;27.60;16.67;;;-4.70;99.90;;;;;;4930188;29;20596;-69
2022/03/06 06:09:10;;;;;;;22.63;15.80;;;-4.60;99.90;;;;;;4935326;29;20178;-69
2022/03/06 06:11:36;;;;;;;26.63;16.77;;;-4.60;99.90;;;;;;4935712;29;20190;-69
2022/03/06 06:14:03;;;;;;;54.30;16.77;;;-4.50;99.90;;;;;;4936293;29;20175;-69
2022/03/06 06:16:30;;;;;;;25.73;15.80;;;-4.40;99.90;;;;;;4936762;29;20218;-70
2022/03/06 06:18:56;;;;;;;21.17;15.47;;;-4.40;99.90;;;;;;4936518;29;20178;-69
2022/03/06 06:21:22;;;;;;;21.20;15.73;;;-4.30;99.90;;;;;;4936876;29;20182;-69
2022/03/06 06:23:47;;;;;;;28.70;15.97;;;-4.40;99.90;;;;;;4921171;29;20591;-69
2022/03/06 06:26:14;;;;;;;28.47;18.33;;;-4.40;99.90;;;;;;4916684;29;20564;-69
2022/03/06 06:28:39;;;;;;;21.60;15.63;;;-4.30;99.90;;;;;;4917340;29;20211;-69
2022/03/06 06:31:06;;;;;;;22.90;15.83;;;-4.20;99.90;;;;;;4916731;29;20647;-69
2022/03/06 06:33:32;;;;;;;25.67;17.03;;;-4.10;99.90;;;;;;4917703;29;20190;-70
2022/03/06 06:35:58;;;;;;;19.70;15.17;;;-4.00;99.90;;;;;;4918071;29;20577;-69
2022/03/06 06:38:24;;;;;;;27.47;16.77;;;-3.90;99.90;;;;;;4936354;29;20277;-69
2022/03/06 06:40:51;;;;;;;24.20;16.27;;;-3.80;99.90;;;;;;4936650;29;20209;-70
2022/03/06 06:43:18;;;;;;;23.73;17.27;;;-3.60;99.90;;;;;;4935546;29;20182;-69
2022/03/06 06:45:44;;;;;;;25.80;14.70;;;-3.50;99.90;;;;;;4936160;29;20248;-70
2022/03/06 06:48:10;;;;;;;18.87;15.07;;;-3.40;99.90;;;;;;4934691;29;20210;-69
2022/03/06 06:50:36;;;;;;;23.30;16.43;;;-3.30;99.90;;;;;;4930800;29;20179;-69
2022/03/06 06:53:02;;;;;;;21.63;17.00;;;-3.20;99.90;;;;;;4917286;29;20183;-70
2022/03/06 06:55:28;;;;;;;22.20;18.03;;;-3.10;99.90;;;;;;4916120;29;20249;-70
2022/03/06 06:57:54;;;;;;;26.13;18.53;;;-2.90;99.90;;;;;;4917154;29;20631;-69
2022/03/06 07:00:20;;;;;;;21.77;15.17;;;-2.80;99.90;;;;;;4916132;29;20286;-70
2022/03/06 07:02:46;;;;;;;21.13;14.47;;;-2.70;99.90;;;;;;4917040;29;20549;-70
2022/03/06 07:05:13;;;;;;;30.17;16.57;;;-2.50;99.90;;;;;;4920585;29;20235;-70
2022/03/06 07:07:39;;;;;;;26.33;18.87;;;-2.30;99.90;;;;;;4916703;29;20218;-70
2022/03/06 07:10:06;;;;;;;28.43;20.00;;;-2.00;99.90;;;;;;4916042;29;20616;-70
2022/03/06 07:12:44;;;;;;;26.50;18.23;;;-1.70;99.90;;;;;;4917173;29;20179;-70
2022/03/06 07:15:11;;;;;;;30.23;26.97;;;-1.30;99.90;;;;;;4916742;29;20647;-70
2022/03/06 07:17:38;;;;;;;25.57;16.83;;;-0.70;99.90;;;;;;4916500;29;20274;-70
2022/03/06 07:20:05;;;;;;;22.03;15.93;;;-0.10;99.90;;;;;;4932194;29;20191;-71
2022/03/06 07:22:30;;;;;;;26.30;16.20;;;0.40;99.90;;;;;;4934472;29;20628;-71
2022/03/06 07:24:56;;;;;;;23.27;19.23;;;0.80;99.90;;;;;;4935716;29;20194;-70
2022/03/06 07:27:22;;;;;;;21.07;16.93;;;1.40;99.90;;;;;;4934044;29;20210;-70
2022/03/06 07:29:48;;;;;;;21.90;15.37;;;1.70;99.90;;;;;;4927121;29;20194;-70
2022/03/06 07:32:14;;;;;;;22.23;15.07;;;1.90;99.90;;;;;;4915888;29;20269;-71
2022/03/06 07:34:40;;;;;;;22.27;15.83;;;2.20;99.90;;;;;;4935483;29;20717;-71
2022/03/06 07:37:06;;;;;;;19.90;15.40;;;2.50;99.90;;;;;;4934311;29;20198;-70
2022/03/06 07:39:32;;;;;;;19.90;15.47;;;2.70;99.90;;;;;;4935625;29;20601;-70
2022/03/06 07:41:57;;;;;;;20.00;15.13;;;2.80;99.90;;;;;;4936943;29;20309;-71
2022/03/06 07:44:23;;;;;;;19.90;15.27;;;2.90;99.90;;;;;;4935301;29;20231;-71
2022/03/06 07:46:49;;;;;;;22.53;15.93;;;3.10;99.90;;;;;;4929536;29;20261;-70
2022/03/06 07:49:15;;;;;;;22.87;16.03;;;3.30;99.90;;;;;;4916191;29;20214;-70
2022/03/06 07:51:40;;;;;;;22.53;17.77;;;3.30;99.90;;;;;;4916259;29;20577;-70
2022/03/06 07:54:08;;;;;;;19.83;15.30;;;3.30;99.90;;;;;;4916368;29;20191;-70
2022/03/06 07:56:33;;;;;;;20.70;15.73;;;3.40;99.90;;;;;;4916015;29;20203;-70
2022/03/06 07:58:59;;;;;;;22.17;16.07;;;3.50;99.90;;;;;;4915112;29;20194;-70
2022/03/06 08:01:25;;;;;;;23.33;16.93;;;3.70;99.90;;;;;;4925235;29;20178;-70
2022/03/06 08:03:51;;;;;;;19.23;15.33;;;4.00;99.90;;;;;;4934203;29;20187;-70
2022/03/06 08:06:16;;;;;;;23.00;16.60;;;4.30;99.90;;;;;;4933577;29;20198;-70
2022/03/06 08:08:43;;;;;;;22.47;16.53;;;4.50;99.90;;;;;;4933320;29;20270;-70
2022/03/06 08:11:09;;;;;;;19.50;14.60;;;4.60;99.90;;;;;;4934925;29;20187;-69
2022/03/06 08:13:34;;;;;;;20.00;14.97;;;4.80;99.90;;;;;;4935054;29;20584;-70
2022/03/06 08:16:00;;;;;;;20.33;15.23;;;5.20;99.90;;;;;;4932635;29;20214;-70
2022/03/06 08:18:26;;;;;;;22.53;15.70;;;5.30;99.90;;;;;;4934354;29;20195;-70
2022/03/06 08:20:52;;;;;;;17.10;14.77;;;5.60;99.90;;;;;;4933675;29;20182;-70
2022/03/06 08:23:18;;;;;;;19.50;15.60;;;5.80;99.90;;;;;;4934568;29;20666;-70
2022/03/06 08:25:43;;;;;;;21.63;15.43;;;5.90;99.90;;;;;;4934594;29;20346;-70
2022/03/06 08:28:09;;;;;;;19.80;15.57;;;6.20;99.90;;;;;;4934035;29;20256;-76
2022/03/06 08:30:35;;;;;;;19.70;15.50;;;6.50;99.90;;;;;;4915585;29;20220;-70
2022/03/06 08:33:01;;;;;;;16.57;14.37;;;6.40;99.90;;;;;;4915517;29;20182;-70
2022/03/06 08:35:27;;;;;;;19.40;15.30;;;6.30;99.90;;;;;;4927950;29;20202;-70
2022/03/06 08:37:52;;;;;;;20.00;15.93;;;6.40;99.90;;;;;;4944940;29;20190;-70
2022/03/06 08:40:18;;;;;;;19.23;15.50;;;6.40;99.60;;;;;;4933199;29;20179;-70
2022/03/06 08:42:45;;;;;;;17.73;15.83;;;6.70;99.60;;;;;;4934224;29;20552;-70
2022/03/06 08:45:11;;;;;;;21.80;16.60;;;6.80;98.40;;;;;;4934250;29;20341;-70
2022/03/06 08:47:36;;;;;;;19.80;15.97;;;7.00;98.40;;;;;;4933796;29;20860;-70
2022/03/06 08:50:05;;;;;;;18.53;16.00;;;7.00;97.30;;;;;;4933069;29;20178;-70
2022/03/06 08:52:31;;;;;;;20.33;16.30;;;7.10;97.50;;;;;;4932700;29;20178;-70
2022/03/06 08:54:57;;;;;;;20.93;16.60;;;7.40;96.80;;;;;;4934017;29;20214;-70
2022/03/06 08:57:23;;;;;;;18.47;16.47;;;7.40;95.80;;;;;;4934017;29;20190;-70
2022/03/06 08:59:49;;;;;;;18.70;15.30;;;7.30;95.80;;;;;;4934282;29;20193;-70
2022/03/06 09:02:15;;;;;;;18.37;16.13;;;7.30;94.90;;;;;;4932853;29;20600;-70
2022/03/06 09:04:41;;;;;;;18.97;15.50;;;7.30;94.80;;;;;;4932782;29;20195;-70
2022/03/06 09:07:07;;;;;;;18.17;15.13;;;7.60;94.10;;;;;;4932632;29;20210;-70
2022/03/06 09:09:33;;;;;;;18.57;14.70;;;7.80;93.50;;;;;;4933872;29;20187;-69
2022/03/06 09:11:58;;;;;;;19.33;14.97;;;7.90;93.30;;;;;;4934108;29;20535;-70
2022/03/06 09:14:24;;;;;;;17.47;14.53;;;8.40;91.50;;;;;;4934250;29;20245;-70
2022/03/06 09:16:50;;;;;;;20.67;14.77;;;8.80;90.30;;;;;;4933378;29;20225;-70
2022/03/06 09:19:16;;;;;;;16.57;14.80;;;8.90;88.20;;;;;;4931355;29;20243;-70
2022/03/06 09:21:43;;;;;;;17.83;14.43;;;9.10;88.20;;;;;;4914807;29;20286;-70
2022/03/06 09:24:10;;;;;;;19.97;13.03;;;9.10;85.40;;;;;;4914879;29;20187;-70
2022/03/06 09:26:37;;;;;;;17.43;13.83;;;9.50;82.60;;;;;;4913585;29;20323;-69
2022/03/06 09:29:04;;;;;;;15.37;13.13;;;9.30;81.00;;;;;;4914908;29;20179;-70
2022/03/06 09:31:30;;;;;;;16.77;10.57;;;9.10;79.50;;;;;;4915547;29;20183;-74
2022/03/06 09:33:56;;;;;;;18.73;14.43;;;8.40;79.30;;;;;;4921578;29;20179;-70
2022/03/06 09:36:22;;;;;;;20.03;13.80;;;8.20;80.20;;;;;;4933685;29;20206;-71
2022/03/06 09:38:48;;;;;;;14.37;11.60;;;8.80;79.40;;;;;;4933385;29;20274;-70
2022/03/06 09:41:20;;;;;;;16.00;12.40;;;8.60;76.00;;;;;;4933777;29;20268;-70
2022/03/06 09:43:46;;;;;;;14.30;10.77;;;8.60;76.70;;;;;;4933594;29;20554;-71
2022/03/06 09:46:12;;;;;;;16.67;13.10;;;8.70;75.70;;;;;;4932539;29;20202;-69
2022/03/06 09:48:38;;;;;;;14.73;11.83;;;8.60;76.40;;;;;;4920672;29;20222;-71
2022/03/06 09:51:05;;;;;;;17.53;13.17;;;9.10;74.00;;;;;;4914503;29;20190;-71
2022/03/06 09:53:31;;;;;;;16.50;12.97;;;9.40;71.20;;;;;;4914565;29;20274;-70
2022/03/06 09:55:57;;;;;;;13.67;12.20;;;9.10;70.90;;;;;;4914391;29;20206;-72
2022/03/06 09:58:23;;;;;;;19.47;12.37;;;9.00;71.90;;;;;;4914201;29;20667;-71
2022/03/06 10:00:49;;;;;;;12.53;10.47;;;9.70;70.80;;;;;;4914462;29;20186;-70
2022/03/06 10:03:20;;;;;;;17.83;12.97;;;9.30;66.60;;;;;;4930580;29;20182;-71
2022/03/06 10:05:47;;;;;;;14.10;10.37;;;8.50;68.80;;;;;;4931974;29;20280;-70
2022/03/06 10:08:17;;;;;;;14.03;12.33;;;8.90;66.60;;;;;;4932870;29;20246;-70
2022/03/06 10:10:44;;;;;;;14.00;10.70;;;9.60;63.00;;;;;;4933421;29;20187;-70
2022/03/06 10:13:18;;;;;;;18.33;10.50;;;10.00;61.50;;;;;;4933240;29;20207;-70
2022/03/06 10:15:58;;;;;;;11.93;10.27;;;9.80;62.50;;;;;;4950256;23;20234;-68
2022/03/06 10:18:23;;;;;;;13.47;10.27;;;10.20;60.30;;;;;;4914742;29;20754;-68
2022/03/06 10:20:49;;;;;;;10.00;8.97;;;10.10;59.20;;;;;;4914884;29;20277;-69
2022/03/06 10:23:26;;;;;;;11.37;10.17;;;9.70;57.20;;;;;;4918009;29;20191;-69
2022/03/06 10:26:00;;;;;;;10.87;8.50;;;9.40;60.00;;;;;;4918212;29;20254;-69
2022/03/06 10:28:26;;;;;;;14.57;12.40;;;8.60;62.70;;;;;;4917593;29;20242;-65
2022/03/06 10:30:52;;;;;;;17.53;11.93;;;8.40;65.50;;;;;;4917771;29;20281;-64
2022/03/06 10:33:20;;;;;;;13.97;11.33;;;9.30;66.00;;;;;;4917844;29;20194;-64
2022/03/06 10:35:48;;;;;;;14.10;11.57;;;9.20;59.90;;;;;;4917692;29;20286;-73
2022/03/06 10:38:26;;;;;;;10.70;8.60;;;9.00;60.30;;;;;;4916130;29;20216;-69
2022/03/06 10:41:00;;;;;;;14.63;11.13;;;9.20;59.90;;;;;;4917822;29;20198;-69
2022/03/06 10:43:34;;;;;;;9.27;7.70;;;9.10;59.20;;;;;;4916293;29;20277;-69
2022/03/06 10:46:11;;;;;;;12.27;9.60;;;8.80;58.60;;;;;;4917478;29;20270;-68
2022/03/06 10:48:38;;;;;;;9.97;8.97;;;8.20;59.80;;;;;;4916764;29;20207;-68
2022/03/06 10:51:06;;;;;;;14.53;11.00;;;7.70;60.90;;;;;;4909185;29;20192;-68
2022/03/06 10:53:32;;;;;;;10.53;9.43;;;7.60;60.90;;;;;;4917515;29;20656;-68
2022/03/06 10:56:15;;;;;;;13.40;10.30;;;7.40;61.60;;;;;;4917269;29;20282;-68
2022/03/06 10:58:43;;;;;;;12.13;10.50;;;7.60;62.10;;;;;;4916591;29;20585;-69
2022/03/06 11:01:10;;;;;;;13.07;11.13;;;7.30;59.50;;;;;;4915791;29;20535;-68
2022/03/06 11:03:36;;;;;;;12.37;11.07;;;7.10;60.60;;;;;;4917072;29;20187;-69
2022/03/06 11:06:06;;;;;;;14.30;10.87;;;7.50;60.90;;;;;;4915265;29;20694;-68
2022/03/06 11:08:32;;;;;;;15.17;12.60;;;8.00;59.50;;;;;;4916583;29;20654;-68
2022/03/06 11:10:58;;;;;;;13.50;11.40;;;7.90;59.20;;;;;;4916872;29;20187;-68
2022/03/06 11:13:26;;;;;;;16.80;11.00;;;7.70;58.80;;;;;;4915201;29;20568;-69
2022/03/06 11:15:52;;;;;;;12.67;10.27;;;7.40;59.40;;;;;;4903300;29;20247;-68
2022/03/06 11:18:19;;;;;;;11.23;9.37;;;7.70;59.60;;;;;;4911195;29;20287;-68
2022/03/06 11:20:46;;;;;;;10.90;9.73;;;8.70;58.20;;;;;;4916860;29;20207;-68
2022/03/06 11:23:29;;;;;;;13.00;10.53;;;9.70;56.00;;;;;;4915601;29;20567;-69
2022/03/06 11:26:14;;;;;;;11.97;10.17;;;11.20;53.40;;;;;;4916812;29;20211;-69
2022/03/06 11:29:10;;;;;;;13.87;12.47;;;12.30;50.10;;;;;;4916496;29;20301;-68
2022/03/06 11:31:55;;;;;;;10.67;9.47;;;12.90;48.80;;;;;;4915620;29;20241;-68
2022/03/06 11:34:35;;;;;;;18.27;14.63;;;13.10;46.80;;;;;;4915880;29;20183;-68
2022/03/06 11:37:15;;;;;;;13.90;11.03;;;12.50;46.70;;;;;;4916544;29;20207;-69
2022/03/06 11:39:42;;;;;;;9.30;8.40;;;13.30;45.60;;;;;;4915599;29;20191;-68
2022/03/06 11:42:09;;;;;;;13.40;11.03;;;14.00;44.10;;;;;;4916600;29;20218;-69
2022/03/06 11:44:49;;;;;;;13.73;11.97;;;13.90;43.70;;;;;;4915404;29;20202;-68
2022/03/06 11:47:23;;;;;;;12.50;10.90;;;13.40;44.80;;;;;;4916033;29;20218;-68
2022/03/06 11:49:59;;;;;;;12.43;11.17;;;13.10;44.80;;;;;;4916115;29;20209;-69
2022/03/06 11:52:36;;;;;;;13.70;11.07;;;12.20;46.10;;;;;;4915165;29;20269;-68
2022/03/06 11:55:28;;;;;;;10.73;9.63;;;11.00;48.80;;;;;;4916306;29;20196;-68
2022/03/06 11:57:54;;;;;;;16.87;11.63;;;9.80;50.70;;;;;;4914607;29;20190;-69
2022/03/06 12:00:24;;;;;;;15.00;11.83;;;9.20;52.90;;;;;;4915057;29;20190;-69
2022/03/06 12:02:56;;;;;;;18.07;11.43;;;8.70;54.50;;;;;;4913711;29;20265;-68
2022/03/06 12:05:44;;;;;;;13.73;11.00;;;8.30;55.20;;;;;;4916573;29;20599;-69
2022/03/06 12:08:11;;;;;;;13.57;10.60;;;8.10;55.70;;;;;;4915615;29;20226;-68
2022/03/06 12:10:40;;;;;;;11.87;10.13;;;7.90;56.70;;;;;;4916045;29;20682;-69
2022/03/06 12:13:23;;;;;;;11.70;10.53;;;7.90;57.20;;;;;;4915891;29;20190;-69
2022/03/06 12:16:08;;;;;;;11.90;10.77;;;8.10;57.40;;;;;;4915869;29;20220;-69
2022/03/06 12:18:35;;;;;;;12.63;11.30;;;8.00;57.50;;;;;;4914854;29;20190;-69
2022/03/06 12:21:16;;;;;;;12.43;11.13;;;7.60;57.60;;;;;;4908135;29;20232;-68
2022/03/06 12:23:42;;;;;;;11.87;10.27;;;7.40;57.20;;;;;;4898055;29;20219;-69
2022/03/06 12:26:08;;;;;;;12.87;11.33;;;7.20;57.40;;;;;;4897651;29;20208;-70
2022/03/06 12:28:43;;;;;;;14.00;12.50;;;7.30;58.00;;;;;;4894802;29;20310;-69
2022/03/06 12:31:29;;;;;;;11.13;9.77;;;7.50;58.00;;;;;;4902095;29;20190;-69
2022/03/06 12:33:55;;;;;;;12.23;10.80;;;7.30;57.70;;;;;;4909754;29;20191;-68
2022/03/06 12:36:24;;;;;;;10.87;9.53;;;7.10;58.50;;;;;;4913988;29;20203;-68
2022/03/06 12:39:04;;;;;;;12.83;11.43;;;7.30;59.40;;;;;;4913365;29;20203;-68
2022/03/06 12:41:30;;;;;;;14.63;13.10;;;7.50;58.70;;;;;;4911327;29;20628;-71
2022/03/06 12:43:59;;;;;;;12.03;10.83;;;8.00;58.50;;;;;;4900349;29;20187;-68
2022/03/06 12:46:25;;;;;;;12.37;10.20;;;9.70;55.60;;;;;;4913809;29;20211;-70
2022/03/06 12:48:51;;;;;;;9.20;8.30;;;10.30;53.00;;;;;;4913893;29;20214;-70
2022/03/06 12:51:34;;;;;;;13.37;11.73;;;11.10;51.40;;;;;;4915178;29;20187;-70
2022/03/06 12:54:02;;;;;;;14.00;12.53;;;11.70;50.60;;;;;;4906610;29;20238;-75
2022/03/06 12:56:37;;;;;;;13.50;11.07;;;12.60;48.40;;;;;;4896250;29;20238;-75
2022/03/06 12:59:15;;;;;;;13.90;11.43;;;13.10;46.90;;;;;;4915827;29;20179;-78
2022/03/06 13:01:41;;;;;;;11.30;10.17;;;13.20;46.60;;;;;;4922157;29;20214;-77
2022/03/06 13:04:08;;;;;;;13.23;10.73;;;12.50;45.60;;;;;;4914853;29;20183;-78
2022/03/06 13:06:34;;;;;;;10.33;9.23;;;11.90;47.30;;;;;;4915032;29;20538;-77
2022/03/06 13:09:01;;;;;;;12.03;9.10;;;12.30;47.20;;;;;;4915231;29;20189;-78
2022/03/06 13:11:27;;;;;;;11.27;10.07;;;13.20;46.10;;;;;;4924898;29;20222;-77
2022/03/06 13:14:01;;;;;;;12.37;10.27;;;13.90;45.30;;;;;;4918742;29;20186;-77
2022/03/06 13:16:27;;;;;;;8.60;7.80;;;13.60;45.10;;;;;;4915889;29;20210;-78
2022/03/06 13:19:01;;;;;;;11.67;9.07;;;13.70;44.60;;;;;;4914903;29;20183;-77
2022/03/06 13:21:27;;;;;;;12.57;9.83;;;13.20;44.90;;;;;;4915562;29;20201;-77
2022/03/06 13:24:15;;;;;;;10.80;9.43;;;13.10;44.80;;;;;;4914214;29;20179;-77
2022/03/06 13:26:42;;;;;;;14.53;11.13;;;13.20;44.10;;;;;;4899853;29;20298;-78
2022/03/06 13:29:14;;;;;;;14.70;12.10;;;12.80;44.30;;;;;;4911462;29;20449;-79
2022/03/06 13:31:44;;;;;;;13.43;11.40;;;11.50;46.00;;;;;;4917629;29;20711;-79
2022/03/06 13:34:13;;;;;;;13.00;11.40;;;10.50;48.00;;;;;;4921004;29;20213;-78
2022/03/06 13:36:40;;;;;;;12.33;11.13;;;9.60;50.20;;;;;;4920880;29;20192;-77
2022/03/06 13:39:14;;;;;;;14.60;11.57;;;9.80;50.20;;;;;;4920649;29;20190;-79
2022/03/06 13:41:53;;;;;;;12.30;10.97;;;9.50;51.10;;;;;;4912651;29;20187;-78
2022/03/06 13:44:20;;;;;;;12.10;10.80;;;10.70;49.40;;;;;;4916456;29;20273;-77
2022/03/06 13:46:46;;;;;;;13.83;10.37;;;11.10;47.70;;;;;;4913270;29;20219;-77
2022/03/06 13:49:17;;;;;;;12.43;11.10;;;11.20;47.10;;;;;;4915438;29;20242;-77
2022/03/06 13:51:43;;;;;;;14.23;11.87;;;10.40;48.10;;;;;;4918581;29;20182;-77
2022/03/06 13:54:10;;;;;;;13.77;11.87;;;10.00;49.80;;;;;;4918351;29;20179;-76
2022/03/06 13:56:41;;;;;;;10.90;9.80;;;10.90;50.40;;;;;;4915300;29;20293;-77
2022/03/06 13:59:38;;;;;;;14.07;11.77;;;11.20;48.50;;;;;;4919166;29;20183;-78
2022/03/06 14:02:09;;;;;;;14.43;11.20;;;10.90;48.60;;;;;;4923847;29;20192;-78
2022/03/06 14:04:36;;;;;;;15.80;12.47;;;9.90;50.60;;;;;;4927737;29;20644;-78
2022/03/06 14:07:11;;;;;;;12.10;9.97;;;9.00;52.60;;;;;;4924331;29;20825;-78
2022/03/06 14:09:45;;;;;;;14.33;12.07;;;8.20;54.00;;;;;;4927383;29;20187;-81
2022/03/06 14:12:13;;;;;;;11.17;10.07;;;7.70;55.40;;;;;;4925098;29;20601;-79
2022/03/06 14:14:45;;;;;;;11.03;9.87;;;7.40;56.40;;;;;;4927433;29;20179;-79
2022/03/06 14:17:16;;;;;;;13.60;10.80;;;6.90;57.60;;;;;;4921670;29;20249;-79
2022/03/06 14:19:55;;;;;;;14.17;12.50;;;6.80;58.80;;;;;;4924349;29;20202;-80
2022/03/06 14:22:21;;;;;;;14.77;12.73;;;6.80;58.60;;;;;;4924733;29;20195;-78
2022/03/06 14:24:46;;;;;;;13.87;10.97;;;7.00;58.40;;;;;;4930595;29;20279;-79
2022/03/06 14:27:12;;;;;;;10.13;9.13;;;7.00;57.70;;;;;;4927511;29;20222;-79
2022/03/06 14:29:40;;;;;;;14.07;11.17;;;6.90;58.10;;;;;;4929357;29;20274;-78
2022/03/06 14:32:06;;;;;;;16.40;13.30;;;6.60;59.00;;;;;;4929553;29;20238;-77
2022/03/06 14:34:34;;;;;;;11.63;8.87;;;6.70;58.80;;;;;;4930641;29;20243;-78
2022/03/06 14:37:01;;;;;;;13.43;11.33;;;6.60;58.40;;;;;;4929838;29;20211;-78
2022/03/06 14:39:29;;;;;;;15.30;11.80;;;6.60;57.90;;;;;;4932715;29;20218;-77
2022/03/06 14:41:55;;;;;;;14.40;11.60;;;6.90;57.80;;;;;;4927212;29;20734;-77
2022/03/06 14:44:22;;;;;;;13.80;11.50;;;7.00;57.60;;;;;;4928487;29;20183;-78
2022/03/06 14:46:51;;;;;;;12.90;11.60;;;7.10;57.30;;;;;;4933854;29;20282;-77
2022/03/06 14:49:18;;;;;;;13.60;12.03;;;7.00;57.20;;;;;;4932444;29;20211;-78
2022/03/06 14:51:45;;;;;;;13.97;11.63;;;7.10;57.30;;;;;;4912236;29;20195;-78
2022/03/06 14:54:12;;;;;;;12.97;11.37;;;7.20;57.50;;;;;;4910767;29;20192;-78
2022/03/06 14:56:39;;;;;;;12.80;11.60;;;7.10;57.10;;;;;;4911283;29;20223;-78
2022/03/06 14:59:08;;;;;;;12.73;11.53;;;6.90;57.10;;;;;;4911806;29;20180;-78
2022/03/06 15:01:34;;;;;;;12.43;11.23;;;7.30;57.60;;;;;;4912535;29;20653;-78
2022/03/06 15:04:00;;;;;;;13.17;10.87;;;7.60;56.20;;;;;;4915945;29;20312;-78
2022/03/06 15:06:26;;;;;;;13.87;11.67;;;7.20;56.40;;;;;;4929993;29;20207;-78
2022/03/06 15:08:53;;;;;;;12.90;11.60;;;6.90;57.40;;;;;;4936010;29;20207;-78
2022/03/06 15:11:18;;;;;;;11.17;9.97;;;6.90;58.50;;;;;;4936047;29;20202;-78
2022/03/06 15:13:45;;;;;;;12.57;11.27;;;6.90;59.90;;;;;;4939246;29;20175;-78
2022/03/06 15:16:11;;;;;;;12.57;11.27;;;6.60;59.50;;;;;;4933598;29;20218;-78
2022/03/06 15:18:40;;;;;;;13.33;10.77;;;6.50;60.20;;;;;;4932229;29;20187;-78
2022/03/06 15:21:06;;;;;;;9.90;9.00;;;6.60;60.20;;;;;;4930480;29;20195;-78
2022/03/06 15:23:32;;;;;;;16.60;14.40;;;6.60;60.10;;;;;;4932408;29;20183;-78
2022/03/06 15:25:59;;;;;;;12.97;11.67;;;6.60;60.80;;;;;;4932296;29;20303;-78
2022/03/06 15:28:28;;;;;;;13.90;11.10;;;6.60;60.30;;;;;;4930098;29;20214;-79
2022/03/06 15:30:54;;;;;;;12.27;9.37;;;6.60;60.00;;;;;;4929940;29;20187;-78
2022/03/06 15:33:20;;;;;;;12.57;10.87;;;6.50;59.90;;;;;;4929743;29;20249;-79
2022/03/06 15:35:46;;;;;;;13.93;12.13;;;6.40;60.90;;;;;;4930958;29;20211;-78
2022/03/06 15:38:11;;;;;;;12.17;10.97;;;6.30;62.60;;;;;;4930605;29;20254;-78
2022/03/06 15:40:37;;;;;;;9.40;8.53;;;6.20;61.40;;;;;;4927709;29;20180;-78
2022/03/06 15:43:04;;;;;;;14.60;12.13;;;5.90;61.50;;;;;;4929105;29;20215;-78
2022/03/06 15:45:31;;;;;;;12.20;11.00;;;5.80;62.90;;;;;;4928157;29;20242;-78
2022/03/06 15:47:57;;;;;;;13.30;11.97;;;5.90;62.50;;;;;;4927966;29;20278;-78
2022/03/06 15:50:23;;;;;;;10.00;9.10;;;5.90;62.70;;;;;;4928763;29;20274;-78
2022/03/06 15:52:48;;;;;;;13.17;11.63;;;5.80;62.50;;;;;;4930911;29;20182;-79
2022/03/06 15:55:15;;;;;;;14.37;11.60;;;5.80;62.80;;;;;;4932272;29;20183;-79
2022/03/06 15:57:40;;;;;;;13.93;12.33;;;5.80;63.10;;;;;;4930006;29;20191;-79
2022/03/06 16:00:07;;;;;;;10.57;9.63;;;5.70;63.20;;;;;;4931175;29;20213;-79
2022/03/06 16:02:33;;;;;;;11.33;9.90;;;5.60;62.60;;;;;;4930170;29;20183;-79
2022/03/06 16:04:59;;;;;;;11.20;10.07;;;5.40;62.70;;;;;;4930376;29;20207;-78
2022/03/06 16:07:25;;;;;;;11.90;10.60;;;5.20;62.80;;;;;;4931098;29;20218;-78
2022/03/06 16:09:50;;;;;;;14.47;12.97;;;5.20;63.60;;;;;;4934668;29;20187;-78
2022/03/06 16:12:16;;;;;;;13.20;11.60;;;5.10;63.70;;;;;;4935397;29;20266;-78
2022/03/06 16:14:42;;;;;;;24.37;18.10;;;5.00;63.70;;;;;;4932182;29;20187;-78
2022/03/06 16:17:08;;;;;;;15.63;13.93;;;4.90;64.00;;;;;;4953792;23;20273;-77
2022/03/06 16:19:34;;;;;;;11.53;10.33;;;4.90;64.40;;;;;;4934633;29;20322;-77
2022/03/06 16:22:00;;;;;;;22.17;15.57;;;4.80;64.00;;;;;;4936234;29;20218;-77
2022/03/06 16:24:27;;;;;;;17.87;15.33;;;4.70;64.20;;;;;;4943440;29;20221;-77
2022/03/06 16:26:53;;;;;;;22.10;16.17;;;4.70;64.30;;;;;;4951386;29;20209;-77
2022/03/06 16:29:19;;;;;;;40.40;23.40;;;4.70;64.10;;;;;;4952219;29;20174;-77
2022/03/06 16:31:44;;;;;;;16.50;14.13;;;4.70;64.90;;;;;;4951632;29;20267;-77
2022/03/06 16:34:12;;;;;;;17.03;13.57;;;4.70;64.20;;;;;;4950825;29;20174;-77
2022/03/06 16:36:37;;;;;;;15.40;12.70;;;4.70;64.60;;;;;;4952295;29;20225;-76
2022/03/06 16:39:05;;;;;;;15.33;11.80;;;4.60;64.40;;;;;;4946357;29;20647;-77
2022/03/06 16:41:31;;;;;;;13.40;11.90;;;4.60;64.60;;;;;;4936851;29;20221;-77